sensor_id;sensor_type;location;lat;lon;timestamp;P1;durP1;ratioP1;P2;durP2;ratioP2
19195;SDS011;9730;48.926;11.376;2022-08-19T00:01:16;31.52;;;25.33;;
19195;SDS011;9730;48.926;11.376;2022-08-19T00:03:42;36.30;;;28.73;;
19195;SDS011;9730;48.926;11.376;2022-08-19T00:06:09;39.95;;;29.30;;
19195;SDS011;9730;48.926;11.376;2022-08-19T00:08:36;32.63;;;27.45;;
19195;SDS011;9730;48.926;11.376;2022-08-19T00:11:03;34.57;;;27.33;;
19195;SDS011;9730;48.926;11.376;2022-08-19T00:13:30;34.53;;;27.90;;
19195;SDS011;9730;48.926;11.376;2022-08-19T00:15:56;31.80;;;25.60;;
19195;SDS011;9730;48.926;11.376;2022-08-19T00:20:52;37.70;;;28.25;;
19195;SDS011;9730;48.926;11.376;2022-08-19T00:23:19;32.72;;;27.88;;
19195;SDS011;9730;48.926;11.376;2022-08-19T00:25:46;32.28;;;26.30;;
19195;SDS011;9730;48.926;11.376;2022-08-19T00:28:13;36.63;;;28.73;;
19195;SDS011;9730;48.926;11.376;2022-08-19T00:30:39;34.03;;;27.52;;
19195;SDS011;9730;48.926;11.376;2022-08-19T00:33:06;35.13;;;26.52;;
19195;SDS011;9730;48.926;11.376;2022-08-19T00:35:33;32.95;;;26.83;;
19195;SDS011;9730;48.926;11.376;2022-08-19T00:38:00;35.60;;;28.10;;
19195;SDS011;9730;48.926;11.376;2022-08-19T00:40:26;34.85;;;27.08;;
19195;SDS011;9730;48.926;11.376;2022-08-19T00:42:54;32.47;;;27.30;;
19195;SDS011;9730;48.926;11.376;2022-08-19T00:45:22;36.70;;;30.20;;
19195;SDS011;9730;48.926;11.376;2022-08-19T00:47:52;39.03;;;28.90;;
19195;SDS011;9730;48.926;11.376;2022-08-19T00:50:18;37.40;;;29.42;;
19195;SDS011;9730;48.926;11.376;2022-08-19T00:52:47;37.43;;;29.23;;
19195;SDS011;9730;48.926;11.376;2022-08-19T00:55:18;34.70;;;28.45;;
19195;SDS011;9730;48.926;11.376;2022-08-19T00:57:48;36.70;;;28.58;;
19195;SDS011;9730;48.926;11.376;2022-08-19T01:00:21;36.83;;;29.98;;
19195;SDS011;9730;48.926;11.376;2022-08-19T01:02:49;37.03;;;29.42;;
19195;SDS011;9730;48.926;11.376;2022-08-19T01:05:17;35.90;;;29.23;;
19195;SDS011;9730;48.926;11.376;2022-08-19T01:07:46;38.88;;;28.08;;
19195;SDS011;9730;48.926;11.376;2022-08-19T01:10:15;38.25;;;28.67;;
19195;SDS011;9730;48.926;11.376;2022-08-19T01:12:43;37.75;;;29.27;;
19195;SDS011;9730;48.926;11.376;2022-08-19T01:15:12;35.17;;;28.15;;
19195;SDS011;9730;48.926;11.376;2022-08-19T01:17:42;39.85;;;28.13;;
19195;SDS011;9730;48.926;11.376;2022-08-19T01:20:11;35.10;;;28.48;;
19195;SDS011;9730;48.926;11.376;2022-08-19T01:22:42;36.72;;;28.48;;
19195;SDS011;9730;48.926;11.376;2022-08-19T01:25:12;37.15;;;28.67;;
19195;SDS011;9730;48.926;11.376;2022-08-19T01:27:41;37.40;;;28.52;;
19195;SDS011;9730;48.926;11.376;2022-08-19T01:30:10;46.13;;;32.45;;
19195;SDS011;9730;48.926;11.376;2022-08-19T01:32:38;41.17;;;30.08;;
19195;SDS011;9730;48.926;11.376;2022-08-19T01:35:06;42.78;;;32.70;;
19195;SDS011;9730;48.926;11.376;2022-08-19T01:37:42;44.42;;;34.15;;
19195;SDS011;9730;48.926;11.376;2022-08-19T01:40:13;44.05;;;33.15;;
19195;SDS011;9730;48.926;11.376;2022-08-19T01:42:40;41.63;;;30.88;;
19195;SDS011;9730;48.926;11.376;2022-08-19T01:45:07;40.35;;;31.52;;
19195;SDS011;9730;48.926;11.376;2022-08-19T01:47:34;44.60;;;31.17;;
19195;SDS011;9730;48.926;11.376;2022-08-19T01:50:02;37.95;;;30.10;;
19195;SDS011;9730;48.926;11.376;2022-08-19T01:52:29;43.53;;;29.42;;
19195;SDS011;9730;48.926;11.376;2022-08-19T01:55:00;36.25;;;27.92;;
19195;SDS011;9730;48.926;11.376;2022-08-19T01:57:27;43.15;;;30.45;;
19195;SDS011;9730;48.926;11.376;2022-08-19T01:59:53;42.03;;;30.00;;
19195;SDS011;9730;48.926;11.376;2022-08-19T02:02:20;41.50;;;29.98;;
19195;SDS011;9730;48.926;11.376;2022-08-19T02:04:47;43.97;;;32.65;;
19195;SDS011;9730;48.926;11.376;2022-08-19T02:07:13;37.80;;;29.63;;
19195;SDS011;9730;48.926;11.376;2022-08-19T02:09:40;37.10;;;29.58;;
19195;SDS011;9730;48.926;11.376;2022-08-19T02:12:08;39.45;;;29.17;;
19195;SDS011;9730;48.926;11.376;2022-08-19T02:14:34;37.73;;;30.23;;
19195;SDS011;9730;48.926;11.376;2022-08-19T02:17:02;36.10;;;27.27;;
19195;SDS011;9730;48.926;11.376;2022-08-19T02:19:29;40.28;;;28.48;;
19195;SDS011;9730;48.926;11.376;2022-08-19T02:21:57;48.23;;;28.77;;
19195;SDS011;9730;48.926;11.376;2022-08-19T02:24:25;34.83;;;29.03;;
19195;SDS011;9730;48.926;11.376;2022-08-19T02:26:52;39.30;;;30.13;;
19195;SDS011;9730;48.926;11.376;2022-08-19T02:29:20;40.58;;;30.73;;
19195;SDS011;9730;48.926;11.376;2022-08-19T02:31:47;45.55;;;32.15;;
19195;SDS011;9730;48.926;11.376;2022-08-19T02:34:13;45.65;;;33.17;;
19195;SDS011;9730;48.926;11.376;2022-08-19T02:36:40;47.65;;;33.05;;
19195;SDS011;9730;48.926;11.376;2022-08-19T02:39:07;43.92;;;32.00;;
19195;SDS011;9730;48.926;11.376;2022-08-19T02:41:33;49.97;;;34.28;;
19195;SDS011;9730;48.926;11.376;2022-08-19T02:44:01;50.55;;;34.95;;
19195;SDS011;9730;48.926;11.376;2022-08-19T02:46:31;46.38;;;34.08;;
19195;SDS011;9730;48.926;11.376;2022-08-19T02:49:00;44.75;;;33.13;;
19195;SDS011;9730;48.926;11.376;2022-08-19T02:51:30;46.55;;;33.67;;
19195;SDS011;9730;48.926;11.376;2022-08-19T02:53:59;43.67;;;33.42;;
19195;SDS011;9730;48.926;11.376;2022-08-19T02:56:26;47.47;;;33.47;;
19195;SDS011;9730;48.926;11.376;2022-08-19T02:58:53;45.13;;;34.50;;
19195;SDS011;9730;48.926;11.376;2022-08-19T03:01:21;47.15;;;33.85;;
19195;SDS011;9730;48.926;11.376;2022-08-19T03:03:51;45.47;;;33.78;;
19195;SDS011;9730;48.926;11.376;2022-08-19T03:06:18;48.90;;;36.13;;
19195;SDS011;9730;48.926;11.376;2022-08-19T03:08:46;46.28;;;35.05;;
19195;SDS011;9730;48.926;11.376;2022-08-19T03:13:41;47.40;;;35.08;;
19195;SDS011;9730;48.926;11.376;2022-08-19T03:16:08;52.80;;;37.42;;
19195;SDS011;9730;48.926;11.376;2022-08-19T03:18:35;56.08;;;38.25;;
19195;SDS011;9730;48.926;11.376;2022-08-19T03:21:04;53.50;;;38.95;;
19195;SDS011;9730;48.926;11.376;2022-08-19T03:23:31;58.50;;;40.65;;
19195;SDS011;9730;48.926;11.376;2022-08-19T03:25:58;60.72;;;40.97;;
19195;SDS011;9730;48.926;11.376;2022-08-19T03:28:29;69.82;;;44.50;;
19195;SDS011;9730;48.926;11.376;2022-08-19T03:30:57;72.78;;;47.70;;
19195;SDS011;9730;48.926;11.376;2022-08-19T03:33:25;66.43;;;45.22;;
19195;SDS011;9730;48.926;11.376;2022-08-19T03:35:59;65.90;;;45.30;;
19195;SDS011;9730;48.926;11.376;2022-08-19T03:38:28;63.97;;;42.88;;
19195;SDS011;9730;48.926;11.376;2022-08-19T03:40:54;61.55;;;42.70;;
19195;SDS011;9730;48.926;11.376;2022-08-19T03:43:21;59.67;;;42.03;;
19195;SDS011;9730;48.926;11.376;2022-08-19T03:45:47;57.35;;;41.50;;
19195;SDS011;9730;48.926;11.376;2022-08-19T03:48:16;62.92;;;42.03;;
19195;SDS011;9730;48.926;11.376;2022-08-19T03:50:42;61.00;;;40.25;;
19195;SDS011;9730;48.926;11.376;2022-08-19T03:53:09;58.00;;;38.88;;
19195;SDS011;9730;48.926;11.376;2022-08-19T03:55:39;60.50;;;40.40;;
19195;SDS011;9730;48.926;11.376;2022-08-19T03:58:06;55.38;;;38.42;;
19195;SDS011;9730;48.926;11.376;2022-08-19T04:00:33;49.28;;;36.70;;
19195;SDS011;9730;48.926;11.376;2022-08-19T04:03:00;54.30;;;38.65;;
19195;SDS011;9730;48.926;11.376;2022-08-19T04:05:27;48.92;;;37.17;;
19195;SDS011;9730;48.926;11.376;2022-08-19T04:07:54;53.63;;;38.05;;
19195;SDS011;9730;48.926;11.376;2022-08-19T04:10:24;56.92;;;39.35;;
19195;SDS011;9730;48.926;11.376;2022-08-19T04:12:51;61.22;;;39.13;;
19195;SDS011;9730;48.926;11.376;2022-08-19T04:15:18;56.05;;;40.20;;
19195;SDS011;9730;48.926;11.376;2022-08-19T04:17:45;50.78;;;37.95;;
19195;SDS011;9730;48.926;11.376;2022-08-19T04:20:12;55.13;;;38.47;;
19195;SDS011;9730;48.926;11.376;2022-08-19T04:22:39;52.72;;;37.35;;
19195;SDS011;9730;48.926;11.376;2022-08-19T04:25:05;54.05;;;39.78;;
19195;SDS011;9730;48.926;11.376;2022-08-19T04:27:32;57.13;;;40.72;;
19195;SDS011;9730;48.926;11.376;2022-08-19T04:30:00;62.13;;;41.67;;
19195;SDS011;9730;48.926;11.376;2022-08-19T04:32:27;58.08;;;40.03;;
19195;SDS011;9730;48.926;11.376;2022-08-19T04:34:53;61.03;;;42.30;;
19195;SDS011;9730;48.926;11.376;2022-08-19T04:37:21;58.30;;;41.55;;
19195;SDS011;9730;48.926;11.376;2022-08-19T04:39:48;55.60;;;39.47;;
19195;SDS011;9730;48.926;11.376;2022-08-19T04:42:32;62.22;;;42.65;;
19195;SDS011;9730;48.926;11.376;2022-08-19T04:45:07;57.78;;;40.80;;
19195;SDS011;9730;48.926;11.376;2022-08-19T04:47:35;56.95;;;40.40;;
19195;SDS011;9730;48.926;11.376;2022-08-19T04:50:02;58.95;;;42.20;;
19195;SDS011;9730;48.926;11.376;2022-08-19T04:52:29;56.65;;;40.25;;
19195;SDS011;9730;48.926;11.376;2022-08-19T04:54:57;52.53;;;37.83;;
19195;SDS011;9730;48.926;11.376;2022-08-19T04:57:24;63.08;;;42.97;;
19195;SDS011;9730;48.926;11.376;2022-08-19T04:59:53;61.10;;;43.83;;
19195;SDS011;9730;48.926;11.376;2022-08-19T05:02:21;62.30;;;42.72;;
19195;SDS011;9730;48.926;11.376;2022-08-19T05:04:50;69.93;;;42.78;;
19195;SDS011;9730;48.926;11.376;2022-08-19T05:07:17;60.85;;;42.50;;
19195;SDS011;9730;48.926;11.376;2022-08-19T05:09:43;70.53;;;46.83;;
19195;SDS011;9730;48.926;11.376;2022-08-19T05:12:10;66.32;;;45.08;;
19195;SDS011;9730;48.926;11.376;2022-08-19T05:14:37;60.95;;;43.28;;
19195;SDS011;9730;48.926;11.376;2022-08-19T05:17:03;54.63;;;39.63;;
19195;SDS011;9730;48.926;11.376;2022-08-19T05:19:31;57.65;;;41.10;;
19195;SDS011;9730;48.926;11.376;2022-08-19T05:22:15;50.75;;;39.45;;
19195;SDS011;9730;48.926;11.376;2022-08-19T05:25:00;57.63;;;37.33;;
19195;SDS011;9730;48.926;11.376;2022-08-19T05:27:30;52.88;;;38.75;;
19195;SDS011;9730;48.926;11.376;2022-08-19T05:29:57;59.72;;;39.72;;
19195;SDS011;9730;48.926;11.376;2022-08-19T05:32:24;55.35;;;40.70;;
19195;SDS011;9730;48.926;11.376;2022-08-19T05:34:52;56.45;;;41.47;;
19195;SDS011;9730;48.926;11.376;2022-08-19T05:37:19;52.55;;;37.88;;
19195;SDS011;9730;48.926;11.376;2022-08-19T05:39:46;57.85;;;40.85;;
19195;SDS011;9730;48.926;11.376;2022-08-19T05:42:14;60.67;;;43.08;;
19195;SDS011;9730;48.926;11.376;2022-08-19T05:44:42;56.15;;;40.28;;
19195;SDS011;9730;48.926;11.376;2022-08-19T05:47:10;57.80;;;40.55;;
19195;SDS011;9730;48.926;11.376;2022-08-19T05:49:38;49.47;;;38.17;;
19195;SDS011;9730;48.926;11.376;2022-08-19T05:52:07;53.78;;;41.22;;
19195;SDS011;9730;48.926;11.376;2022-08-19T05:54:36;57.33;;;38.78;;
19195;SDS011;9730;48.926;11.376;2022-08-19T05:57:05;55.72;;;37.55;;
19195;SDS011;9730;48.926;11.376;2022-08-19T05:59:32;50.30;;;36.85;;
19195;SDS011;9730;48.926;11.376;2022-08-19T06:02:00;45.97;;;36.47;;
19195;SDS011;9730;48.926;11.376;2022-08-19T06:04:28;49.20;;;35.33;;
19195;SDS011;9730;48.926;11.376;2022-08-19T06:06:54;40.63;;;33.20;;
19195;SDS011;9730;48.926;11.376;2022-08-19T06:09:23;53.10;;;35.65;;
19195;SDS011;9730;48.926;11.376;2022-08-19T06:11:50;52.80;;;36.27;;
19195;SDS011;9730;48.926;11.376;2022-08-19T06:14:20;50.13;;;33.97;;
19195;SDS011;9730;48.926;11.376;2022-08-19T06:16:48;43.78;;;34.50;;
19195;SDS011;9730;48.926;11.376;2022-08-19T06:19:16;44.92;;;34.10;;
19195;SDS011;9730;48.926;11.376;2022-08-19T06:21:46;47.15;;;35.17;;
19195;SDS011;9730;48.926;11.376;2022-08-19T06:24:14;49.03;;;36.65;;
19195;SDS011;9730;48.926;11.376;2022-08-19T06:26:44;53.47;;;36.95;;
19195;SDS011;9730;48.926;11.376;2022-08-19T06:29:12;42.90;;;34.13;;
19195;SDS011;9730;48.926;11.376;2022-08-19T06:31:41;51.92;;;39.05;;
19195;SDS011;9730;48.926;11.376;2022-08-19T06:34:09;50.00;;;36.88;;
19195;SDS011;9730;48.926;11.376;2022-08-19T06:36:37;50.40;;;36.90;;
19195;SDS011;9730;48.926;11.376;2022-08-19T06:39:07;52.38;;;35.72;;
19195;SDS011;9730;48.926;11.376;2022-08-19T06:44:04;51.35;;;34.72;;
19195;SDS011;9730;48.926;11.376;2022-08-19T06:46:32;45.72;;;34.08;;
19195;SDS011;9730;48.926;11.376;2022-08-19T06:48:59;47.90;;;34.40;;
19195;SDS011;9730;48.926;11.376;2022-08-19T06:51:25;59.00;;;36.60;;
19195;SDS011;9730;48.926;11.376;2022-08-19T06:53:54;43.38;;;32.28;;
19195;SDS011;9730;48.926;11.376;2022-08-19T06:56:22;53.60;;;35.25;;
19195;SDS011;9730;48.926;11.376;2022-08-19T06:58:59;47.60;;;36.20;;
19195;SDS011;9730;48.926;11.376;2022-08-19T07:01:27;51.35;;;36.92;;
19195;SDS011;9730;48.926;11.376;2022-08-19T07:03:54;48.50;;;34.30;;
19195;SDS011;9730;48.926;11.376;2022-08-19T07:06:21;47.47;;;35.00;;
19195;SDS011;9730;48.926;11.376;2022-08-19T07:08:58;49.38;;;34.30;;
19195;SDS011;9730;48.926;11.376;2022-08-19T07:11:25;46.90;;;35.10;;
19195;SDS011;9730;48.926;11.376;2022-08-19T07:13:52;45.55;;;31.70;;
19195;SDS011;9730;48.926;11.376;2022-08-19T07:16:19;45.55;;;33.78;;
19195;SDS011;9730;48.926;11.376;2022-08-19T07:18:48;44.40;;;31.92;;
19195;SDS011;9730;48.926;11.376;2022-08-19T07:21:16;47.55;;;31.98;;
19195;SDS011;9730;48.926;11.376;2022-08-19T07:23:46;47.63;;;33.67;;
19195;SDS011;9730;48.926;11.376;2022-08-19T07:26:15;42.40;;;32.22;;
19195;SDS011;9730;48.926;11.376;2022-08-19T07:28:44;45.35;;;32.47;;
19195;SDS011;9730;48.926;11.376;2022-08-19T07:31:12;50.47;;;35.17;;
19195;SDS011;9730;48.926;11.376;2022-08-19T07:33:40;48.40;;;34.85;;
19195;SDS011;9730;48.926;11.376;2022-08-19T07:36:10;52.58;;;35.92;;
19195;SDS011;9730;48.926;11.376;2022-08-19T07:38:39;49.40;;;34.35;;
19195;SDS011;9730;48.926;11.376;2022-08-19T07:41:06;44.30;;;32.63;;
19195;SDS011;9730;48.926;11.376;2022-08-19T07:43:35;47.38;;;34.70;;
19195;SDS011;9730;48.926;11.376;2022-08-19T07:46:01;48.95;;;35.22;;
19195;SDS011;9730;48.926;11.376;2022-08-19T07:48:28;53.47;;;34.97;;
19195;SDS011;9730;48.926;11.376;2022-08-19T07:50:55;54.40;;;36.20;;
19195;SDS011;9730;48.926;11.376;2022-08-19T07:53:24;51.25;;;35.10;;
19195;SDS011;9730;48.926;11.376;2022-08-19T07:55:51;53.08;;;33.75;;
19195;SDS011;9730;48.926;11.376;2022-08-19T07:58:18;45.33;;;32.53;;
19195;SDS011;9730;48.926;11.376;2022-08-19T08:00:47;51.40;;;33.83;;
19195;SDS011;9730;48.926;11.376;2022-08-19T08:03:16;45.25;;;31.95;;
19195;SDS011;9730;48.926;11.376;2022-08-19T08:05:44;40.10;;;30.08;;
19195;SDS011;9730;48.926;11.376;2022-08-19T08:08:29;42.03;;;30.02;;
19195;SDS011;9730;48.926;11.376;2022-08-19T08:11:11;44.15;;;30.15;;
19195;SDS011;9730;48.926;11.376;2022-08-19T08:13:38;42.50;;;30.08;;
19195;SDS011;9730;48.926;11.376;2022-08-19T08:16:06;41.25;;;30.55;;
19195;SDS011;9730;48.926;11.376;2022-08-19T08:18:33;43.13;;;31.13;;
19195;SDS011;9730;48.926;11.376;2022-08-19T08:21:06;45.17;;;30.73;;
19195;SDS011;9730;48.926;11.376;2022-08-19T08:23:34;46.03;;;34.08;;
19195;SDS011;9730;48.926;11.376;2022-08-19T08:26:01;40.55;;;30.85;;
19195;SDS011;9730;48.926;11.376;2022-08-19T08:28:29;41.63;;;29.48;;
19195;SDS011;9730;48.926;11.376;2022-08-19T08:30:57;41.47;;;32.10;;
19195;SDS011;9730;48.926;11.376;2022-08-19T08:33:24;46.78;;;31.75;;
19195;SDS011;9730;48.926;11.376;2022-08-19T08:35:52;48.63;;;33.15;;
19195;SDS011;9730;48.926;11.376;2022-08-19T08:38:18;44.67;;;31.20;;
19195;SDS011;9730;48.926;11.376;2022-08-19T08:40:48;43.47;;;31.42;;
19195;SDS011;9730;48.926;11.376;2022-08-19T08:43:20;41.45;;;28.15;;
19195;SDS011;9730;48.926;11.376;2022-08-19T08:45:52;39.20;;;27.38;;
19195;SDS011;9730;48.926;11.376;2022-08-19T08:48:29;36.58;;;26.20;;
19195;SDS011;9730;48.926;11.376;2022-08-19T08:51:02;34.55;;;26.63;;
19195;SDS011;9730;48.926;11.376;2022-08-19T08:53:31;37.10;;;27.08;;
19195;SDS011;9730;48.926;11.376;2022-08-19T08:56:02;36.97;;;27.55;;
19195;SDS011;9730;48.926;11.376;2022-08-19T08:58:33;35.05;;;25.80;;
19195;SDS011;9730;48.926;11.376;2022-08-19T09:01:09;35.05;;;26.75;;
19195;SDS011;9730;48.926;11.376;2022-08-19T09:03:37;32.42;;;24.50;;
19195;SDS011;9730;48.926;11.376;2022-08-19T09:06:11;33.40;;;25.15;;
19195;SDS011;9730;48.926;11.376;2022-08-19T09:08:45;33.85;;;24.45;;
19195;SDS011;9730;48.926;11.376;2022-08-19T09:11:22;37.83;;;26.88;;
19195;SDS011;9730;48.926;11.376;2022-08-19T09:14:01;32.42;;;23.25;;
19195;SDS011;9730;48.926;11.376;2022-08-19T09:16:35;29.70;;;22.77;;
19195;SDS011;9730;48.926;11.376;2022-08-19T09:19:04;29.42;;;22.42;;
19195;SDS011;9730;48.926;11.376;2022-08-19T09:21:33;27.70;;;21.73;;
19195;SDS011;9730;48.926;11.376;2022-08-19T09:24:00;27.23;;;21.03;;
19195;SDS011;9730;48.926;11.376;2022-08-19T09:26:28;29.98;;;22.95;;
19195;SDS011;9730;48.926;11.376;2022-08-19T09:28:56;25.73;;;20.27;;
19195;SDS011;9730;48.926;11.376;2022-08-19T09:31:25;28.70;;;21.60;;
19195;SDS011;9730;48.926;11.376;2022-08-19T09:33:54;28.00;;;21.23;;
19195;SDS011;9730;48.926;11.376;2022-08-19T09:36:22;21.97;;;17.57;;
19195;SDS011;9730;48.926;11.376;2022-08-19T09:38:49;22.38;;;17.27;;
19195;SDS011;9730;48.926;11.376;2022-08-19T09:41:17;20.08;;;17.80;;
19195;SDS011;9730;48.926;11.376;2022-08-19T09:43:47;22.27;;;17.80;;
19195;SDS011;9730;48.926;11.376;2022-08-19T09:46:17;20.50;;;17.80;;
19195;SDS011;9730;48.926;11.376;2022-08-19T09:48:46;23.60;;;18.50;;
19195;SDS011;9730;48.926;11.376;2022-08-19T09:51:15;22.52;;;18.00;;
19195;SDS011;9730;48.926;11.376;2022-08-19T09:53:43;19.70;;;16.70;;
19195;SDS011;9730;48.926;11.376;2022-08-19T09:56:10;22.63;;;16.92;;
19195;SDS011;9730;48.926;11.376;2022-08-19T09:58:39;20.53;;;17.70;;
19195;SDS011;9730;48.926;11.376;2022-08-19T10:01:08;21.63;;;17.10;;
19195;SDS011;9730;48.926;11.376;2022-08-19T10:06:03;19.10;;;16.00;;
19195;SDS011;9730;48.926;11.376;2022-08-19T10:10:58;19.23;;;16.35;;
19195;SDS011;9730;48.926;11.376;2022-08-19T10:13:26;22.40;;;18.02;;
19195;SDS011;9730;48.926;11.376;2022-08-19T10:15:56;19.48;;;15.73;;
19195;SDS011;9730;48.926;11.376;2022-08-19T10:18:29;19.42;;;16.55;;
19195;SDS011;9730;48.926;11.376;2022-08-19T10:21:03;17.77;;;15.82;;
19195;SDS011;9730;48.926;11.376;2022-08-19T10:23:33;20.48;;;16.25;;
19195;SDS011;9730;48.926;11.376;2022-08-19T10:26:01;17.83;;;15.50;;
19195;SDS011;9730;48.926;11.376;2022-08-19T10:28:28;18.17;;;16.23;;
19195;SDS011;9730;48.926;11.376;2022-08-19T10:30:54;19.17;;;16.65;;
19195;SDS011;9730;48.926;11.376;2022-08-19T10:33:21;19.63;;;16.15;;
19195;SDS011;9730;48.926;11.376;2022-08-19T10:35:50;19.27;;;16.42;;
19195;SDS011;9730;48.926;11.376;2022-08-19T10:38:25;23.00;;;19.13;;
19195;SDS011;9730;48.926;11.376;2022-08-19T10:40:51;23.45;;;19.20;;
19195;SDS011;9730;48.926;11.376;2022-08-19T10:43:18;28.45;;;21.05;;
19195;SDS011;9730;48.926;11.376;2022-08-19T10:45:48;25.17;;;19.83;;
19195;SDS011;9730;48.926;11.376;2022-08-19T10:48:17;26.15;;;20.15;;
19195;SDS011;9730;48.926;11.376;2022-08-19T10:50:44;26.92;;;20.77;;
19195;SDS011;9730;48.926;11.376;2022-08-19T10:53:29;28.52;;;21.88;;
19195;SDS011;9730;48.926;11.376;2022-08-19T10:55:56;29.87;;;23.13;;
19195;SDS011;9730;48.926;11.376;2022-08-19T10:58:39;28.00;;;21.90;;
19195;SDS011;9730;48.926;11.376;2022-08-19T11:01:06;28.20;;;21.73;;
19195;SDS011;9730;48.926;11.376;2022-08-19T11:03:33;32.83;;;24.35;;
19195;SDS011;9730;48.926;11.376;2022-08-19T11:06:00;25.98;;;22.13;;
19195;SDS011;9730;48.926;11.376;2022-08-19T11:08:27;26.95;;;21.10;;
19195;SDS011;9730;48.926;11.376;2022-08-19T11:10:58;25.48;;;20.65;;
19195;SDS011;9730;48.926;11.376;2022-08-19T11:13:26;25.98;;;20.70;;
19195;SDS011;9730;48.926;11.376;2022-08-19T11:15:57;31.63;;;21.15;;
19195;SDS011;9730;48.926;11.376;2022-08-19T11:18:25;25.08;;;20.75;;
19195;SDS011;9730;48.926;11.376;2022-08-19T11:20:52;25.27;;;21.58;;
19195;SDS011;9730;48.926;11.376;2022-08-19T11:23:18;27.65;;;21.33;;
19195;SDS011;9730;48.926;11.376;2022-08-19T11:25:45;24.05;;;18.55;;
19195;SDS011;9730;48.926;11.376;2022-08-19T11:28:13;25.00;;;19.48;;
19195;SDS011;9730;48.926;11.376;2022-08-19T11:30:40;26.07;;;20.67;;
19195;SDS011;9730;48.926;11.376;2022-08-19T11:33:06;24.88;;;19.92;;
19195;SDS011;9730;48.926;11.376;2022-08-19T11:35:38;25.25;;;18.65;;
19195;SDS011;9730;48.926;11.376;2022-08-19T11:38:05;22.40;;;17.65;;
19195;SDS011;9730;48.926;11.376;2022-08-19T11:40:32;24.25;;;17.30;;
19195;SDS011;9730;48.926;11.376;2022-08-19T11:42:59;24.17;;;18.70;;
19195;SDS011;9730;48.926;11.376;2022-08-19T11:45:27;23.50;;;18.65;;
19195;SDS011;9730;48.926;11.376;2022-08-19T11:47:54;26.10;;;19.27;;
19195;SDS011;9730;48.926;11.376;2022-08-19T11:50:21;25.67;;;19.73;;
19195;SDS011;9730;48.926;11.376;2022-08-19T11:52:49;28.17;;;21.38;;
19195;SDS011;9730;48.926;11.376;2022-08-19T11:55:16;30.58;;;21.75;;
19195;SDS011;9730;48.926;11.376;2022-08-19T11:57:43;28.88;;;21.15;;
19195;SDS011;9730;48.926;11.376;2022-08-19T12:00:12;28.05;;;20.90;;
19195;SDS011;9730;48.926;11.376;2022-08-19T12:02:41;29.45;;;21.08;;
19195;SDS011;9730;48.926;11.376;2022-08-19T12:05:08;26.25;;;20.95;;
19195;SDS011;9730;48.926;11.376;2022-08-19T12:07:35;26.35;;;20.65;;
19195;SDS011;9730;48.926;11.376;2022-08-19T12:10:02;27.50;;;20.77;;
19195;SDS011;9730;48.926;11.376;2022-08-19T12:12:29;26.88;;;21.30;;
19195;SDS011;9730;48.926;11.376;2022-08-19T12:14:56;29.20;;;22.17;;
19195;SDS011;9730;48.926;11.376;2022-08-19T12:17:23;26.35;;;20.83;;
19195;SDS011;9730;48.926;11.376;2022-08-19T12:19:52;28.27;;;21.10;;
19195;SDS011;9730;48.926;11.376;2022-08-19T12:22:19;27.42;;;20.63;;
19195;SDS011;9730;48.926;11.376;2022-08-19T12:24:46;26.63;;;20.27;;
19195;SDS011;9730;48.926;11.376;2022-08-19T12:27:15;26.80;;;21.05;;
19195;SDS011;9730;48.926;11.376;2022-08-19T12:29:41;30.05;;;23.27;;
19195;SDS011;9730;48.926;11.376;2022-08-19T12:32:08;29.95;;;22.00;;
19195;SDS011;9730;48.926;11.376;2022-08-19T12:34:35;23.05;;;18.63;;
19195;SDS011;9730;48.926;11.376;2022-08-19T12:37:04;26.73;;;20.85;;
19195;SDS011;9730;48.926;11.376;2022-08-19T12:39:33;28.13;;;20.90;;
19195;SDS011;9730;48.926;11.376;2022-08-19T12:42:01;27.45;;;20.25;;
19195;SDS011;9730;48.926;11.376;2022-08-19T12:44:28;26.90;;;21.20;;
19195;SDS011;9730;48.926;11.376;2022-08-19T12:46:55;27.17;;;20.73;;
19195;SDS011;9730;48.926;11.376;2022-08-19T12:49:22;28.33;;;21.27;;
19195;SDS011;9730;48.926;11.376;2022-08-19T12:51:49;28.55;;;20.58;;
19195;SDS011;9730;48.926;11.376;2022-08-19T12:54:18;31.25;;;24.10;;
19195;SDS011;9730;48.926;11.376;2022-08-19T12:56:45;28.30;;;22.10;;
19195;SDS011;9730;48.926;11.376;2022-08-19T12:59:11;32.92;;;23.73;;
19195;SDS011;9730;48.926;11.376;2022-08-19T13:01:39;32.88;;;25.27;;
19195;SDS011;9730;48.926;11.376;2022-08-19T13:04:06;35.28;;;25.55;;
19195;SDS011;9730;48.926;11.376;2022-08-19T13:06:34;35.78;;;25.95;;
19195;SDS011;9730;48.926;11.376;2022-08-19T13:09:01;38.25;;;27.13;;
19195;SDS011;9730;48.926;11.376;2022-08-19T13:11:29;40.38;;;25.65;;
19195;SDS011;9730;48.926;11.376;2022-08-19T13:13:57;40.08;;;25.70;;
19195;SDS011;9730;48.926;11.376;2022-08-19T13:16:24;38.53;;;28.35;;
19195;SDS011;9730;48.926;11.376;2022-08-19T13:18:53;35.30;;;26.30;;
19195;SDS011;9730;48.926;11.376;2022-08-19T13:21:21;35.45;;;24.92;;
19195;SDS011;9730;48.926;11.376;2022-08-19T13:23:50;41.42;;;28.15;;
19195;SDS011;9730;48.926;11.376;2022-08-19T13:26:17;38.40;;;26.90;;
19195;SDS011;9730;48.926;11.376;2022-08-19T13:28:45;39.00;;;26.00;;
19195;SDS011;9730;48.926;11.376;2022-08-19T13:31:31;37.88;;;26.20;;
19195;SDS011;9730;48.926;11.376;2022-08-19T13:34:17;38.10;;;26.33;;
19195;SDS011;9730;48.926;11.376;2022-08-19T13:36:51;35.05;;;25.75;;
19195;SDS011;9730;48.926;11.376;2022-08-19T13:39:19;39.83;;;27.52;;
19195;SDS011;9730;48.926;11.376;2022-08-19T13:41:48;34.78;;;24.15;;
19195;SDS011;9730;48.926;11.376;2022-08-19T13:44:16;32.30;;;23.48;;
19195;SDS011;9730;48.926;11.376;2022-08-19T13:46:44;33.60;;;24.80;;
19195;SDS011;9730;48.926;11.376;2022-08-19T13:49:11;30.13;;;23.40;;
19195;SDS011;9730;48.926;11.376;2022-08-19T13:51:40;31.17;;;23.35;;
19195;SDS011;9730;48.926;11.376;2022-08-19T13:54:07;28.45;;;22.95;;
19195;SDS011;9730;48.926;11.376;2022-08-19T13:56:34;33.17;;;25.02;;
19195;SDS011;9730;48.926;11.376;2022-08-19T13:59:05;44.17;;;28.67;;
19195;SDS011;9730;48.926;11.376;2022-08-19T14:01:34;33.25;;;24.25;;
19195;SDS011;9730;48.926;11.376;2022-08-19T14:04:00;33.13;;;24.85;;
19195;SDS011;9730;48.926;11.376;2022-08-19T14:06:27;35.28;;;26.40;;
19195;SDS011;9730;48.926;11.376;2022-08-19T14:08:54;41.80;;;29.75;;
19195;SDS011;9730;48.926;11.376;2022-08-19T14:11:20;46.28;;;32.60;;
19195;SDS011;9730;48.926;11.376;2022-08-19T14:13:48;43.13;;;30.00;;
19195;SDS011;9730;48.926;11.376;2022-08-19T14:16:14;40.70;;;29.60;;
19195;SDS011;9730;48.926;11.376;2022-08-19T14:18:42;44.08;;;30.90;;
19195;SDS011;9730;48.926;11.376;2022-08-19T14:21:13;41.67;;;30.23;;
19195;SDS011;9730;48.926;11.376;2022-08-19T14:23:42;46.60;;;32.65;;
19195;SDS011;9730;48.926;11.376;2022-08-19T14:26:10;43.80;;;32.00;;
19195;SDS011;9730;48.926;11.376;2022-08-19T14:28:38;44.70;;;32.13;;
19195;SDS011;9730;48.926;11.376;2022-08-19T14:31:06;43.50;;;30.35;;
19195;SDS011;9730;48.926;11.376;2022-08-19T14:33:33;50.78;;;34.85;;
19195;SDS011;9730;48.926;11.376;2022-08-19T14:36:01;50.88;;;36.13;;
19195;SDS011;9730;48.926;11.376;2022-08-19T14:38:27;50.55;;;35.08;;
19195;SDS011;9730;48.926;11.376;2022-08-19T14:40:56;45.33;;;33.70;;